Time;durP1;ratioP1;P1;durP2;ratioP2;P2;SDS_P1;SDS_P2;PMS_P1;PMS_P2;Temp;Humidity;BMP_temperature;BMP_pressure;BME280_temperature;BME280_humidity;BME280_pressure;Samples;Min_cycle;Max_cycle;Signal;HPM_P1;HPM_P2
2023/04/13 00:00:22;;;;;;;4.95;3.00;;;5.20;99.90;;;;;;5092181;28;20402;-63
2023/04/13 00:02:54;;;;;;;5.70;3.38;;;5.70;99.90;;;;;;5092464;28;20104;-66
2023/04/13 00:05:21;;;;;;;5.38;3.15;;;5.90;99.90;;;;;;5092546;28;20095;-65
2023/04/13 00:07:49;;;;;;;5.82;3.15;;;5.90;99.90;;;;;;5092072;28;20044;-63
2023/04/13 00:10:17;;;;;;;6.93;3.20;;;5.30;99.90;;;;;;5092534;28;20549;-67
2023/04/13 00:12:46;;;;;;;6.28;3.50;;;5.40;99.90;;;;;;5092305;28;20044;-63
2023/04/13 00:15:16;;;;;;;6.50;2.85;;;6.50;99.90;;;;;;5091438;28;20189;-64
2023/04/13 00:17:43;;;;;;;6.30;3.13;;;5.60;99.90;;;;;;5092009;28;20090;-64
2023/04/13 00:20:12;;;;;;;7.72;3.80;;;5.60;99.90;;;;;;5092332;28;20109;-63
2023/04/13 00:22:46;;;;;;;7.63;3.58;;;5.80;99.90;;;;;;5091696;28;20522;-63
2023/04/13 00:25:13;;;;;;;7.22;3.33;;;5.70;99.90;;;;;;5090477;28;20392;-64
2023/04/13 00:27:42;;;;;;;6.55;3.63;;;5.70;99.90;;;;;;5090581;28;20484;-64
2023/04/13 00:30:11;;;;;;;5.03;3.30;;;5.80;99.90;;;;;;5091283;28;20413;-64
2023/04/13 00:32:39;;;;;;;5.72;3.70;;;5.90;99.90;;;;;;5091679;28;20054;-63
2023/04/13 00:35:06;;;;;;;6.13;3.55;;;5.80;99.90;;;;;;5091580;28;20047;-65
2023/04/13 00:37:31;;;;;;;7.03;3.65;;;6.10;99.90;;;;;;5092005;28;20063;-65
2023/04/13 00:39:58;;;;;;;5.18;3.60;;;6.00;99.90;;;;;;5091764;28;20494;-63
2023/04/13 00:42:24;;;;;;;;;;;5.90;99.90;;;;;;5092236;28;20412;-64
2023/04/13 00:44:52;;;;;;;7.82;3.60;;;6.20;99.90;;;;;;5091273;28;19971;-63
2023/04/13 00:47:27;;;;;;;5.35;3.67;;;6.50;99.90;;;;;;5092008;28;20403;-63
2023/04/13 00:49:54;;;;;;;9.25;3.90;;;6.40;99.90;;;;;;5091875;28;20048;-63
2023/04/13 00:52:21;;;;;;;6.05;3.63;;;6.50;99.90;;;;;;5092116;28;20101;-66
2023/04/13 00:54:50;;;;;;;6.95;3.97;;;6.90;99.90;;;;;;5091681;28;20055;-63
2023/04/13 00:57:18;;;;;;;6.50;3.70;;;6.60;99.90;;;;;;5092027;28;20108;-67
2023/04/13 00:59:48;;;;;;;6.75;4.10;;;6.40;99.90;;;;;;5091927;28;20421;-63
2023/04/13 01:02:15;;;;;;;6.78;4.43;;;6.50;99.90;;;;;;5092046;28;20050;-64
2023/04/13 01:04:41;;;;;;;7.78;5.30;;;6.90;99.90;;;;;;5092002;28;20059;-65
2023/04/13 01:07:36;;;;;;;9.02;5.07;;;6.50;99.90;;;;;;5091976;28;20048;-65
2023/04/13 01:10:10;;;;;;;9.85;4.80;;;6.40;99.90;;;;;;5090450;28;20068;-65
2023/04/13 01:13:05;;;;;;;9.32;5.22;;;6.60;99.90;;;;;;5091281;28;20446;-66
2023/04/13 01:15:36;;;;;;;10.48;5.15;;;6.10;99.90;;;;;;5091875;28;20058;-66
2023/04/13 01:18:07;;;;;;;9.65;5.03;;;6.20;99.90;;;;;;5091845;28;20055;-66
2023/04/13 01:20:37;;;;;;;7.65;4.88;;;6.00;99.90;;;;;;5091735;28;20093;-68
2023/04/13 01:23:34;;;;;;;9.75;4.82;;;6.10;99.90;;;;;;5091671;28;20090;-67
2023/04/13 01:26:06;;;;;;;8.05;5.18;;;6.10;99.90;;;;;;5087071;28;20110;-67
2023/04/13 01:28:33;;;;;;;5.63;3.95;;;6.00;99.90;;;;;;5091346;28;20044;-68
2023/04/13 01:31:00;;;;;;;9.40;3.75;;;6.30;99.90;;;;;;5091223;28;20113;-68
2023/04/13 01:33:29;;;;;;;8.00;4.20;;;5.70;99.90;;;;;;5091588;28;20048;-67
2023/04/13 01:35:56;;;;;;;6.22;4.50;;;6.00;99.90;;;;;;5091527;28;20083;-69
2023/04/13 01:38:25;;;;;;;10.85;4.95;;;5.90;99.90;;;;;;5091525;28;20090;-67
2023/04/13 01:40:51;;;;;;;7.68;5.70;;;6.60;99.90;;;;;;5091212;28;20139;-68
2023/04/13 01:43:19;;;;;;;7.72;4.97;;;5.80;99.90;;;;;;5094543;28;20130;-69
2023/04/13 01:45:59;;;;;;;7.10;5.40;;;6.40;99.90;;;;;;5095294;28;20052;-67
2023/04/13 01:48:45;;;;;;;8.07;4.88;;;5.80;99.90;;;;;;5095233;28;20446;-72
2023/04/13 01:51:31;;;;;;;6.75;4.63;;;5.90;99.90;;;;;;5095155;28;20678;-68
2023/04/13 01:54:09;;;;;;;6.78;4.70;;;6.10;99.90;;;;;;5094875;28;20563;-68
2023/04/13 01:56:38;;;;;;;7.18;4.30;;;6.10;99.90;;;;;;5094836;28;20087;-67
2023/04/13 01:59:04;;;;;;;7.55;4.35;;;7.20;99.90;;;;;;5095076;28;20097;-67
2023/04/13 02:01:29;;;;;;;;;;;6.70;99.90;;;;;;5095186;28;20060;-65
2023/04/13 02:03:55;;;;;;;7.90;4.85;;;5.80;99.90;;;;;;5095547;28;19998;-67
2023/04/13 02:06:21;;;;;;;8.55;4.78;;;5.60;99.90;;;;;;5095024;28;20359;-70
2023/04/13 02:08:47;;;;;;;9.30;4.70;;;6.10;99.90;;;;;;5094792;28;20063;-67
2023/04/13 02:11:13;;;;;;;10.98;4.93;;;6.00;99.90;;;;;;5094254;28;20459;-67
2023/04/13 02:13:39;;;;;;;;;;;6.20;99.90;;;;;;5095191;28;20044;-67
2023/04/13 02:16:08;;;;;;;8.68;5.25;;;6.00;99.90;;;;;;5094687;28;20420;-68
2023/04/13 02:18:34;;;;;;;7.32;4.85;;;6.00;99.90;;;;;;5094706;28;20051;-67
2023/04/13 02:21:06;;;;;;;8.40;4.90;;;6.20;99.90;;;;;;5094671;28;20104;-67
2023/04/13 02:23:33;;;;;;;9.77;5.50;;;6.00;99.90;;;;;;5094694;28;20048;-69
2023/04/13 02:25:59;;;;;;;;;;;5.90;99.90;;;;;;5094634;28;20048;-68
2023/04/13 02:28:26;;;;;;;7.45;4.88;;;6.20;99.90;;;;;;5094427;28;19931;-66
2023/04/13 02:30:53;;;;;;;7.53;5.22;;;5.70;99.90;;;;;;5093971;28;20056;-67
2023/04/13 02:33:20;;;;;;;9.15;5.30;;;5.90;99.90;;;;;;5094356;28;20048;-66
2023/04/13 02:35:47;;;;;;;8.68;4.85;;;6.60;99.90;;;;;;5094337;28;20438;-71
2023/04/13 02:38:14;;;;;;;8.20;5.07;;;7.10;99.90;;;;;;5094233;28;20051;-69
2023/04/13 02:40:41;;;;;;;7.28;4.60;;;6.30;99.90;;;;;;5094033;28;20044;-68
2023/04/13 02:43:11;;;;;;;9.10;4.82;;;6.50;99.90;;;;;;5094118;28;20052;-68
2023/04/13 02:45:38;;;;;;;8.50;4.85;;;6.40;99.90;;;;;;5094145;28;20051;-72
2023/04/13 02:48:04;;;;;;;7.05;4.70;;;4.50;99.90;;;;;;5093958;28;20047;-68
2023/04/13 02:50:30;;;;;;;7.38;4.63;;;5.90;99.90;;;;;;5093062;28;20399;-67
2023/04/13 02:52:55;;;;;;;9.07;5.05;;;5.80;99.90;;;;;;5093971;28;20119;-67
2023/04/13 02:55:21;;;;;;;9.68;4.82;;;5.90;99.90;;;;;;5092665;28;20063;-67
2023/04/13 02:57:48;;;;;;;8.40;4.93;;;6.50;99.90;;;;;;5093944;28;20052;-68
2023/04/13 03:00:15;;;;;;;7.38;4.63;;;6.30;99.90;;;;;;5093894;28;20154;-69
2023/04/13 03:02:41;;;;;;;7.20;5.18;;;6.10;99.90;;;;;;5093803;28;20481;-68
2023/04/13 03:05:08;;;;;;;8.93;4.68;;;5.90;99.90;;;;;;5093772;28;20113;-70
2023/04/13 03:07:35;;;;;;;9.30;4.40;;;5.90;99.90;;;;;;5093701;28;20131;-69
2023/04/13 03:10:04;;;;;;;6.82;4.07;;;6.20;99.90;;;;;;5093269;28;20044;-68
2023/04/13 03:12:33;;;;;;;9.27;4.50;;;6.60;99.90;;;;;;5093647;28;20056;-70
2023/04/13 03:15:01;;;;;;;8.18;4.75;;;6.90;99.90;;;;;;5093576;28;20051;-67
2023/04/13 03:17:29;;;;;;;7.35;4.40;;;6.10;99.90;;;;;;5093540;28;20083;-69
2023/04/13 03:19:58;;;;;;;8.18;4.65;;;6.20;99.90;;;;;;5093510;28;20348;-67
2023/04/13 03:22:24;;;;;;;6.80;4.20;;;6.30;99.90;;;;;;5093116;28;20095;-67
2023/04/13 03:24:51;;;;;;;6.90;4.15;;;6.20;99.90;;;;;;5093317;28;20194;-67
2023/04/13 03:27:17;;;;;;;6.20;4.55;;;6.20;99.90;;;;;;5092051;28;20466;-69
2023/04/13 03:29:43;;;;;;;6.28;4.13;;;6.40;99.90;;;;;;5093197;28;20043;-67
2023/04/13 03:32:08;;;;;;;8.65;3.90;;;5.90;99.90;;;;;;5092830;28;20059;-67
2023/04/13 03:34:34;;;;;;;6.85;3.78;;;6.30;99.90;;;;;;5093211;28;20158;-67
2023/04/13 03:37:00;;;;;;;5.63;4.07;;;6.40;99.90;;;;;;5092978;28;20048;-67
2023/04/13 03:39:26;;;;;;;7.97;4.05;;;6.10;99.90;;;;;;5093136;28;20047;-67
2023/04/13 03:41:52;;;;;;;;;;;6.60;99.90;;;;;;5093485;28;20060;-67
2023/04/13 03:44:17;;;;;;;6.70;4.07;;;6.10;99.90;;;;;;5092685;28;20376;-67
2023/04/13 03:46:43;;;;;;;6.25;4.07;;;6.30;99.90;;;;;;5092989;28;20508;-66
2023/04/13 03:49:10;;;;;;;5.55;3.50;;;5.70;99.90;;;;;;5092911;28;20043;-68
2023/04/13 03:51:36;;;;;;;9.25;4.15;;;6.00;99.90;;;;;;5092410;28;20483;-67
2023/04/13 03:54:02;;;;;;;8.63;3.97;;;5.50;99.90;;;;;;5092728;28;20130;-66
2023/04/13 03:56:28;;;;;;;;;;;6.40;99.90;;;;;;5093659;28;20044;-67
2023/04/13 03:58:54;;;;;;;6.22;3.80;;;5.80;99.90;;;;;;5092906;28;20372;-67
2023/04/13 04:01:20;;;;;;;9.38;4.07;;;6.30;99.90;;;;;;5092736;28;20051;-67
2023/04/13 04:03:46;;;;;;;6.25;4.05;;;6.10;99.90;;;;;;5092672;28;20051;-66
2023/04/13 04:06:12;;;;;;;6.68;4.20;;;6.00;99.90;;;;;;5091482;28;20048;-66
2023/04/13 04:08:37;;;;;;;5.38;3.75;;;6.40;99.90;;;;;;5092480;28;20048;-67
2023/04/13 04:11:03;;;;;;;6.78;3.78;;;6.20;99.90;;;;;;5092499;28;20054;-68
2023/04/13 04:13:30;;;;;;;6.57;3.90;;;6.20;99.90;;;;;;5092562;28;20050;-66
2023/04/13 04:15:56;;;;;;;;;;;6.60;99.90;;;;;;5092956;28;20369;-66
2023/04/13 04:18:23;;;;;;;5.97;3.42;;;6.00;99.90;;;;;;5092480;28;20487;-66
2023/04/13 04:20:49;;;;;;;4.10;3.55;;;6.20;99.90;;;;;;5092089;28;20048;-67
2023/04/13 04:23:15;;;;;;;7.97;3.85;;;6.00;99.90;;;;;;5092068;28;20063;-66
2023/04/13 04:25:40;;;;;;;5.57;3.80;;;5.80;99.90;;;;;;5092205;28;20044;-66
2023/04/13 04:28:06;;;;;;;5.20;3.58;;;6.30;99.90;;;;;;5092032;28;20130;-66
2023/04/13 04:30:33;;;;;;;6.07;3.63;;;5.70;99.90;;;;;;5091873;28;20102;-66
2023/04/13 04:33:00;;;;;;;5.95;3.22;;;5.50;99.90;;;;;;5092353;28;20381;-66
2023/04/13 04:35:32;;;;;;;9.02;3.95;;;5.60;99.90;;;;;;5091954;28;20118;-66
2023/04/13 04:38:05;;;;;;;5.93;3.65;;;5.70;99.90;;;;;;5092282;28;20047;-66
2023/04/13 04:40:34;;;;;;;7.07;4.13;;;5.90;99.90;;;;;;5092205;28;20055;-65
2023/04/13 04:43:00;;;;;;;7.30;3.88;;;5.60;99.90;;;;;;5092065;28;20158;-65
2023/04/13 04:45:26;;;;;;;8.77;3.85;;;5.30;99.90;;;;;;5092090;28;20090;-66
2023/04/13 04:47:56;;;;;;;5.85;3.70;;;5.60;99.90;;;;;;5092007;28;20052;-66
2023/04/13 04:50:23;;;;;;;6.25;4.00;;;5.60;99.90;;;;;;5091821;28;20105;-66
2023/04/13 04:52:48;;;;;;;7.97;4.57;;;5.70;99.90;;;;;;5092021;28;20131;-66
2023/04/13 04:55:14;;;;;;;7.07;4.28;;;5.90;99.90;;;;;;5092021;28;20122;-65
2023/04/13 04:57:40;;;;;;;7.60;4.18;;;5.70;99.90;;;;;;5091991;28;20036;-65
2023/04/13 05:00:15;;;;;;;6.35;4.35;;;5.40;99.90;;;;;;5091894;28;20044;-67
2023/04/13 05:02:41;;;;;;;5.38;4.60;;;5.80;99.90;;;;;;5091915;28;20047;-67
2023/04/13 05:05:08;;;;;;;8.52;4.82;;;5.30;99.90;;;;;;5091612;28;20087;-66
2023/04/13 05:07:34;;;;;;;7.85;4.88;;;5.40;99.90;;;;;;5091887;28;20094;-66
2023/04/13 05:09:59;;;;;;;8.15;4.78;;;5.40;99.90;;;;;;5091852;28;20115;-66
2023/04/13 05:12:25;;;;;;;9.98;4.53;;;5.40;99.90;;;;;;5091816;28;20071;-65
2023/04/13 05:14:51;;;;;;;11.30;4.90;;;5.00;99.90;;;;;;5091705;28;20176;-66
2023/04/13 05:17:17;;;;;;;7.13;4.50;;;5.40;99.90;;;;;;5093083;28;20044;-65
2023/04/13 05:19:46;;;;;;;6.75;4.57;;;5.10;99.90;;;;;;5094265;28;20097;-65
2023/04/13 05:22:14;;;;;;;10.10;4.80;;;5.40;99.90;;;;;;5094666;28;20083;-65
2023/04/13 05:24:39;;;;;;;7.72;5.22;;;5.00;99.90;;;;;;5094401;28;20083;-66
2023/04/13 05:27:08;;;;;;;8.07;4.75;;;5.30;99.90;;;;;;5095411;28;20075;-65
2023/04/13 05:29:34;;;;;;;6.97;3.95;;;5.70;99.90;;;;;;5095496;28;20480;-66
2023/04/13 05:32:03;;;;;;;7.15;4.47;;;5.30;99.90;;;;;;5095240;28;20055;-65
2023/04/13 05:34:29;;;;;;;10.55;4.82;;;6.00;99.90;;;;;;5095186;28;20044;-66
2023/04/13 05:36:56;;;;;;;;;;;4.80;99.90;;;;;;5095875;28;20036;-66
2023/04/13 05:39:23;;;;;;;6.30;4.43;;;5.20;99.90;;;;;;5095484;28;20018;-65
2023/04/13 05:41:49;;;;;;;6.70;4.65;;;5.60;99.90;;;;;;5095425;28;20091;-68
2023/04/13 05:44:15;;;;;;;9.50;4.97;;;5.50;99.90;;;;;;5095389;28;20432;-66
2023/04/13 05:46:41;;;;;;;8.63;5.15;;;5.40;99.90;;;;;;5095492;28;20055;-65
2023/04/13 05:49:07;;;;;;;8.80;5.30;;;6.00;99.90;;;;;;5095282;28;20044;-65
2023/04/13 05:51:34;;;;;;;7.95;5.03;;;6.10;99.90;;;;;;5095445;28;20123;-66
2023/04/13 05:54:00;;;;;;;9.70;5.88;;;5.60;99.90;;;;;;5095199;28;20098;-65
2023/04/13 05:56:28;;;;;;;11.07;5.85;;;5.80;99.90;;;;;;5095180;28;20083;-65
2023/04/13 05:58:54;;;;;;;10.18;5.68;;;5.40;99.90;;;;;;5084803;28;20086;-68
2023/04/13 06:01:19;;;;;;;15.13;7.65;;;6.10;99.90;;;;;;5094718;28;20400;-67
2023/04/13 06:03:46;;;;;;;12.68;5.85;;;5.60;99.90;;;;;;5094484;28;20115;-65
2023/04/13 06:06:12;;;;;;;10.15;6.55;;;6.40;99.90;;;;;;5094297;28;20048;-65
2023/04/13 06:08:38;;;;;;;10.63;5.97;;;5.50;99.90;;;;;;5094447;28;20036;-66
2023/04/13 06:11:05;;;;;;;12.85;6.60;;;6.60;99.90;;;;;;5094587;28;20059;-69
2023/04/13 06:13:31;;;;;;;10.55;6.20;;;6.70;99.90;;;;;;5093568;28;20084;-66
2023/04/13 06:15:57;;;;;;;11.05;5.50;;;5.90;99.90;;;;;;5094478;28;20087;-66
2023/04/13 06:18:26;;;;;;;11.98;5.40;;;6.50;99.90;;;;;;5093747;28;20384;-67
2023/04/13 06:20:52;;;;;;;9.55;5.25;;;6.40;99.90;;;;;;5076595;28;20048;-67
2023/04/13 06:23:18;;;;;;;11.93;5.18;;;6.90;99.90;;;;;;5094236;28;20048;-67
2023/04/13 06:25:44;;;;;;;11.52;5.70;;;7.00;99.90;;;;;;5094183;28;20829;-66
2023/04/13 06:28:11;;;;;;;11.68;5.53;;;6.30;99.90;;;;;;5093212;28;20044;-67
2023/04/13 06:30:37;;;;;;;10.13;5.95;;;7.20;99.90;;;;;;5092618;28;20059;-68
2023/04/13 06:33:03;;;;;;;15.30;6.20;;;6.60;99.90;;;;;;5093924;28;20484;-69
2023/04/13 06:35:32;;;;;;;;;;;7.20;99.90;;;;;;5094567;28;20182;-68
2023/04/13 06:38:01;;;;;;;10.95;5.53;;;6.40;99.90;;;;;;5094023;28;20010;-67
2023/04/13 06:40:27;;;;;;;10.88;6.03;;;4.80;99.90;;;;;;5094111;28;20052;-70
2023/04/13 06:42:53;;;;;;;12.10;5.50;;;7.30;99.90;;;;;;5093621;28;20040;-67
2023/04/13 06:45:20;;;;;;;10.32;5.30;;;7.00;99.90;;;;;;5093737;28;20055;-67
2023/04/13 06:47:46;;;;;;;13.38;5.43;;;7.50;99.90;;;;;;5093897;28;20040;-67
2023/04/13 06:50:14;;;;;;;13.55;5.65;;;7.20;99.90;;;;;;5093879;28;20044;-70
2023/04/13 06:52:47;;;;;;;10.52;5.65;;;7.00;99.90;;;;;;5092490;28;20451;-69
2023/04/13 06:55:13;;;;;;;10.60;4.78;;;7.80;99.90;;;;;;5093687;28;20047;-67
2023/04/13 06:57:39;;;;;;;12.15;5.20;;;8.20;99.90;;;;;;5093349;28;20503;-68
2023/04/13 07:00:06;;;;;;;;;;;7.60;99.90;;;;;;5091167;28;20140;-69
2023/04/13 07:02:32;;;;;;;9.65;4.72;;;7.50;99.90;;;;;;5092579;28;19935;-66
2023/04/13 07:04:57;;;;;;;20.95;5.70;;;8.20;99.90;;;;;;5093796;28;20044;-68
2023/04/13 07:07:23;;;;;;;14.15;5.25;;;7.40;99.90;;;;;;5091951;28;20055;-67
2023/04/13 07:09:49;;;;;;;11.93;5.45;;;7.90;99.90;;;;;;5093402;28;20054;-68
2023/04/13 07:12:14;;;;;;;15.60;5.30;;;7.30;99.90;;;;;;5091250;28;20105;-74
2023/04/13 07:14:41;;;;;;;12.82;5.47;;;8.20;99.90;;;;;;5073063;28;20119;-65
2023/04/13 07:17:06;;;;;;;12.55;5.20;;;8.40;99.90;;;;;;5075551;28;20044;-67
2023/04/13 07:19:33;;;;;;;12.68;5.38;;;7.70;99.90;;;;;;5091607;28;20054;-69
2023/04/13 07:22:00;;;;;;;19.98;5.78;;;7.50;99.90;;;;;;5091510;28;20056;-68
2023/04/13 07:24:29;;;;;;;17.55;5.30;;;7.70;99.90;;;;;;5093148;28;20045;-66
2023/04/13 07:26:58;;;;;;;9.48;5.32;;;7.70;99.90;;;;;;5091820;28;20087;-67
2023/04/13 07:29:24;;;;;;;18.33;6.18;;;7.50;99.90;;;;;;5092585;28;20040;-66
2023/04/13 07:31:50;;;;;;;15.57;5.13;;;8.10;99.90;;;;;;5093153;28;20070;-66
2023/04/13 07:34:17;;;;;;;20.30;5.63;;;8.00;99.90;;;;;;5091987;28;20055;-67
2023/04/13 07:36:43;;;;;;;17.73;4.10;;;8.40;99.90;;;;;;5091401;28;20051;-66
2023/04/13 07:39:09;;;;;;;13.77;4.53;;;7.90;99.90;;;;;;5092462;28;20082;-69
2023/04/13 07:41:36;;;;;;;12.52;3.72;;;8.50;99.90;;;;;;5092389;28;20055;-66
2023/04/13 07:44:05;;;;;;;12.02;3.70;;;8.00;99.90;;;;;;5092518;28;20539;-66
2023/04/13 07:46:32;;;;;;;9.20;3.47;;;8.00;99.90;;;;;;5092478;28;20052;-70
2023/04/13 07:48:59;;;;;;;11.95;3.30;;;8.60;99.90;;;;;;5092419;28;20048;-67
2023/04/13 07:51:25;;;;;;;9.88;2.95;;;7.70;99.90;;;;;;5091835;28;20551;-67
2023/04/13 07:53:51;;;;;;;10.82;3.25;;;8.30;99.90;;;;;;5092010;28;20098;-68
2023/04/13 07:56:17;;;;;;;9.85;3.08;;;8.00;99.90;;;;;;5092359;28;20075;-68
2023/04/13 07:58:43;;;;;;;;;;;8.10;99.90;;;;;;5091441;28;20047;-66
2023/04/13 08:01:09;;;;;;;8.27;2.70;;;8.30;99.90;;;;;;5092217;28;19972;-67
2023/04/13 08:03:35;;;;;;;8.98;2.67;;;8.30;99.90;;;;;;5092225;28;20040;-67
2023/04/13 08:06:05;;;;;;;10.93;3.05;;;8.40;99.90;;;;;;5091837;28;20055;-68
2023/04/13 08:08:32;;;;;;;11.13;2.65;;;8.50;99.90;;;;;;5091762;28;20055;-70
2023/04/13 08:10:58;;;;;;;11.82;2.80;;;8.80;99.90;;;;;;5091669;28;20079;-67
2023/04/13 08:13:25;;;;;;;6.50;2.42;;;8.80;99.90;;;;;;5091820;28;20476;-66
2023/04/13 08:15:51;;;;;;;9.32;2.13;;;9.60;99.90;;;;;;5092251;28;20048;-67
2023/04/13 08:18:17;;;;;;;5.90;2.53;;;9.30;99.90;;;;;;5092151;28;20044;-66
2023/04/13 08:20:42;;;;;;;4.90;1.95;;;9.10;99.90;;;;;;5091821;28;20117;-66
2023/04/13 08:23:08;;;;;;;8.27;2.10;;;9.30;99.90;;;;;;5089655;28;20074;-64
2023/04/13 08:25:39;;;;;;;5.80;1.98;;;9.00;99.90;;;;;;5091350;28;20054;-66
2023/04/13 08:28:05;;;;;;;5.85;1.83;;;9.10;99.90;;;;;;5091468;28;20048;-66
2023/04/13 08:30:34;;;;;;;6.00;1.50;;;8.70;99.90;;;;;;5092143;28;20043;-69
2023/04/13 08:33:00;;;;;;;3.60;1.50;;;8.40;99.90;;;;;;5091807;28;20052;-70
2023/04/13 08:35:26;;;;;;;2.33;1.15;;;7.40;99.90;;;;;;5091525;28;20454;-72
2023/04/13 08:37:52;;;;;;;3.00;1.02;;;7.30;99.90;;;;;;5091597;28;20044;-70
2023/04/13 08:40:18;;;;;;;;;;;6.80;99.90;;;;;;5092425;28;20044;-67
2023/04/13 08:42:45;;;;;;;1.48;0.80;;;6.70;99.90;;;;;;5091381;28;19981;-68
2023/04/13 08:45:12;;;;;;;3.72;1.05;;;6.80;99.90;;;;;;5091747;28;20105;-68
2023/04/13 08:47:39;;;;;;;1.85;0.85;;;6.30;99.90;;;;;;5072896;28;20499;-69
2023/04/13 08:50:06;;;;;;;2.85;0.90;;;6.90;99.90;;;;;;5092019;28;20047;-70
2023/04/13 08:52:34;;;;;;;2.08;0.95;;;6.90;99.90;;;;;;5090607;28;20048;-67
2023/04/13 08:55:02;;;;;;;4.93;1.30;;;7.70;99.90;;;;;;5089283;28;20048;-66
2023/04/13 08:57:32;;;;;;;9.00;1.70;;;7.90;99.90;;;;;;5090796;28;20079;-74
2023/04/13 08:59:58;;;;;;;4.60;1.48;;;8.30;99.90;;;;;;5091786;28;20044;-67
2023/04/13 09:02:31;;;;;;;3.47;1.58;;;8.60;99.90;;;;;;5091771;28;20122;-70
2023/04/13 09:04:59;;;;;;;6.38;1.80;;;9.40;99.90;;;;;;5090335;28;20100;-68
2023/04/13 09:07:28;;;;;;;7.57;1.83;;;8.80;99.90;;;;;;5092081;28;20472;-68
2023/04/13 09:09:59;;;;;;;6.95;2.28;;;9.10;99.90;;;;;;5086454;28;20051;-81
2023/04/13 09:12:29;;;;;;;8.52;1.92;;;8.50;99.90;;;;;;5089702;28;20054;-66
2023/04/13 09:14:56;;;;;;;4.18;1.48;;;8.10;99.90;;;;;;5091616;28;20040;-67
2023/04/13 09:17:29;;;;;;;4.13;1.73;;;9.20;99.90;;;;;;5091780;28;20502;-68
2023/04/13 09:19:56;;;;;;;6.03;1.98;;;8.30;99.90;;;;;;5090284;28;20546;-67
2023/04/13 09:22:23;;;;;;;7.13;1.85;;;8.30;99.90;;;;;;5091723;28;20124;-70
2023/04/13 09:24:49;;;;;;;5.05;1.60;;;8.20;99.90;;;;;;5091524;28;20219;-68
2023/04/13 09:27:19;;;;;;;3.70;1.80;;;8.20;99.90;;;;;;5092036;28;20585;-66
2023/04/13 09:29:53;;;;;;;5.28;1.40;;;9.00;99.90;;;;;;5091491;28;20044;-65
2023/04/13 09:32:24;;;;;;;6.15;1.60;;;9.30;99.90;;;;;;5073442;28;20055;-65
2023/04/13 09:35:08;;;;;;;3.75;1.50;;;9.40;99.90;;;;;;5091435;28;20108;-65
2023/04/13 09:37:44;;;;;;;1.90;1.00;;;9.50;99.90;;;;;;5089033;28;20074;-67
2023/04/13 09:40:18;;;;;;;6.55;1.50;;;9.80;99.90;;;;;;5090767;28;20496;-65
2023/04/13 09:42:55;;;;;;;4.55;1.30;;;10.10;99.90;;;;;;5091496;28;20059;-65
2023/04/13 09:45:20;;;;;;;4.05;1.60;;;10.40;99.90;;;;;;5091583;28;20396;-64
2023/04/13 09:47:47;;;;;;;4.45;1.75;;;10.20;99.90;;;;;;5091658;28;20048;-65
2023/04/13 09:50:15;;;;;;;;;;;9.90;99.90;;;;;;5091896;28;20093;-68
2023/04/13 09:52:41;;;;;;;6.70;1.67;;;9.80;99.90;;;;;;5091634;28;19927;-67
2023/04/13 09:55:15;;;;;;;5.45;1.80;;;9.90;99.90;;;;;;5091245;28;20134;-66
2023/04/13 09:57:41;;;;;;;5.10;1.80;;;9.60;99.90;;;;;;5091507;28;20052;-65
2023/04/13 10:00:13;;;;;;;3.30;1.15;;;9.90;99.90;;;;;;5091547;28;20123;-69
2023/04/13 10:02:40;;;;;;;2.72;1.20;;;10.00;99.90;;;;;;5090879;28;20404;-64
2023/04/13 10:05:08;;;;;;;4.43;1.20;;;9.50;99.90;;;;;;5093914;28;20097;-65
2023/04/13 10:07:36;;;;;;;6.95;1.50;;;9.50;99.90;;;;;;5095006;28;20126;-65
2023/04/13 10:10:03;;;;;;;7.50;1.30;;;9.20;99.90;;;;;;5094638;28;20058;-66
2023/04/13 10:12:30;;;;;;;;;;;9.40;99.90;;;;;;5095420;28;20083;-67
2023/04/13 10:15:21;;;;;;;4.90;1.30;;;9.20;99.90;;;;;;5094864;28;19920;-65
2023/04/13 10:18:05;;;;;;;4.55;1.40;;;9.40;99.90;;;;;;5056627;28;20135;-65
2023/04/13 10:20:32;;;;;;;4.30;1.30;;;9.40;99.90;;;;;;5093058;28;20036;-66
2023/04/13 10:22:58;;;;;;;5.03;1.45;;;9.00;99.90;;;;;;5094138;28;20059;-67
2023/04/13 10:25:24;;;;;;;4.30;1.20;;;9.50;99.90;;;;;;5094456;28;20062;-66
2023/04/13 10:27:59;;;;;;;4.85;1.48;;;9.50;99.90;;;;;;5093148;28;20484;-69
2023/04/13 10:30:26;;;;;;;4.05;1.20;;;9.50;99.90;;;;;;5092519;28;20383;-67
2023/04/13 10:33:11;;;;;;;3.85;1.58;;;9.80;99.90;;;;;;5093581;28;20055;-64
2023/04/13 10:35:37;;;;;;;5.40;1.73;;;10.10;99.90;;;;;;5092179;28;20401;-64
2023/04/13 10:38:03;;;;;;;7.15;1.38;;;10.00;99.90;;;;;;5093761;28;20073;-65
2023/04/13 10:40:40;;;;;;;6.00;1.50;;;9.70;99.90;;;;;;5091161;28;20067;-69
2023/04/13 10:43:05;;;;;;;7.70;1.95;;;10.10;99.90;;;;;;5092934;28;20079;-68
2023/04/13 10:45:34;;;;;;;6.65;1.92;;;9.80;99.90;;;;;;5093604;28;20079;-66
2023/04/13 10:48:00;;;;;;;5.95;1.65;;;9.50;99.90;;;;;;5093374;28;20493;-66
2023/04/13 10:50:26;;;;;;;3.92;1.30;;;9.60;99.90;;;;;;5092745;28;20046;-66
2023/04/13 10:53:06;;;;;;;5.55;2.00;;;9.70;99.90;;;;;;5091289;28;20083;-65
2023/04/13 10:55:35;;;;;;;4.97;1.20;;;9.40;99.90;;;;;;5092587;28;20056;-65
2023/04/13 10:58:12;;;;;;;7.82;1.65;;;9.60;99.90;;;;;;5093348;28;20083;-65
2023/04/13 11:00:38;;;;;;;4.20;1.45;;;9.30;99.90;;;;;;5093372;28;20087;-69
2023/04/13 11:03:05;;;;;;;;;;;9.10;99.90;;;;;;5093824;28;20070;-65
2023/04/13 11:05:32;;;;;;;3.47;1.20;;;9.10;99.90;;;;;;5093340;28;19920;-66
2023/04/13 11:07:57;;;;;;;6.20;1.40;;;8.20;99.90;;;;;;5092992;28;20412;-71
2023/04/13 11:10:27;;;;;;;4.68;1.35;;;8.60;99.90;;;;;;5093108;28;20050;-69
2023/04/13 11:12:55;;;;;;;3.75;1.40;;;8.10;99.90;;;;;;5093188;28;20056;-68
2023/04/13 11:15:29;;;;;;;6.07;1.65;;;9.10;99.90;;;;;;5092571;28;20483;-66
2023/04/13 11:18:00;;;;;;;4.05;1.60;;;7.80;99.90;;;;;;5091665;28;20070;-68
2023/04/13 11:20:30;;;;;;;2.25;1.48;;;8.60;99.90;;;;;;5092307;28;20048;-68
2023/04/13 11:22:56;;;;;;;9.80;1.85;;;7.20;99.90;;;;;;5091802;28;20048;-68
2023/04/13 11:25:22;;;;;;;;;;;8.00;99.90;;;;;;5092337;28;20044;-69
2023/04/13 11:27:55;;;;;;;3.53;1.42;;;7.90;99.90;;;;;;5092166;28;19923;-73
2023/04/13 11:30:22;;;;;;;9.85;1.60;;;7.90;99.90;;;;;;5091815;28;20046;-73
2023/04/13 11:32:49;;;;;;;;;;;7.20;99.90;;;;;;5092926;28;20465;-70
2023/04/13 11:35:16;;;;;;;4.43;1.45;;;7.70;99.90;;;;;;5092747;28;19967;-69
2023/04/13 11:37:48;;;;;;;4.72;1.00;;;7.70;99.90;;;;;;5092242;28;20075;-69
2023/04/13 11:40:20;;;;;;;7.88;1.70;;;7.60;99.90;;;;;;5092172;28;20052;-69
2023/04/13 11:42:48;;;;;;;8.77;2.05;;;8.20;99.90;;;;;;5091980;28;20118;-70
2023/04/13 11:45:15;;;;;;;7.60;1.63;;;8.30;99.90;;;;;;5090966;28;20480;-70
2023/04/13 11:47:42;;;;;;;9.10;2.53;;;8.30;99.90;;;;;;5091917;28;20460;-69
2023/04/13 11:50:09;;;;;;;7.80;1.77;;;8.80;99.90;;;;;;5091318;28;20090;-69
2023/04/13 11:52:37;;;;;;;4.22;1.58;;;8.70;99.90;;;;;;5092024;28;20135;-69
2023/04/13 11:55:03;;;;;;;4.90;1.42;;;9.30;99.90;;;;;;5091612;28;20044;-67
2023/04/13 11:57:34;;;;;;;13.27;2.22;;;9.50;99.90;;;;;;5092179;28;20059;-68
2023/04/13 12:00:00;;;;;;;4.93;2.80;;;9.60;99.90;;;;;;5092399;28;20052;-67
2023/04/13 12:02:32;;;;;;;8.02;1.90;;;9.20;99.90;;;;;;5091702;28;20040;-66
2023/04/13 12:04:58;;;;;;;7.32;1.80;;;9.60;99.90;;;;;;5092038;28;20052;-68
2023/04/13 12:07:24;;;;;;;7.82;2.10;;;9.60;99.90;;;;;;5091859;28;20184;-65
2023/04/13 12:09:50;;;;;;;10.43;2.63;;;9.20;99.90;;;;;;5091012;28;20044;-65
2023/04/13 12:12:21;;;;;;;9.80;2.58;;;9.10;99.90;;;;;;5092038;28;20054;-67
2023/04/13 12:14:56;;;;;;;13.38;2.50;;;9.40;99.90;;;;;;5091755;28;20059;-68
2023/04/13 12:17:32;;;;;;;12.40;2.65;;;9.50;99.90;;;;;;5089349;28;20403;-66
2023/04/13 12:19:58;;;;;;;14.93;3.25;;;9.30;99.90;;;;;;5091259;28;20079;-66
2023/04/13 12:22:37;;;;;;;12.38;3.33;;;9.50;99.90;;;;;;5091323;28;20090;-64
2023/04/13 12:25:20;;;;;;;15.85;3.00;;;9.00;99.90;;;;;;5091047;28;20054;-65
2023/04/13 12:27:52;;;;;;;20.65;3.63;;;9.50;99.90;;;;;;5090314;28;20047;-63
2023/04/13 12:30:20;;;;;;;16.45;3.35;;;9.60;99.90;;;;;;5090660;28;20582;-65
2023/04/13 12:32:53;;;;;;;14.32;3.08;;;9.50;99.90;;;;;;5091383;28;20488;-64
2023/04/13 12:35:19;;;;;;;16.90;3.38;;;9.80;99.90;;;;;;5090580;28;20459;-66
2023/04/13 12:37:46;;;;;;;18.95;4.68;;;9.30;99.90;;;;;;5087443;28;20043;-66
2023/04/13 12:40:14;;;;;;;11.75;3.03;;;9.80;99.90;;;;;;5090238;28;20044;-65
2023/04/13 12:42:44;;;;;;;16.17;3.88;;;9.90;99.90;;;;;;5091025;28;20064;-64
2023/04/13 12:45:10;;;;;;;16.52;3.40;;;10.20;99.90;;;;;;5090798;28;20058;-66
2023/04/13 12:47:36;;;;;;;16.25;3.83;;;10.20;99.90;;;;;;5090764;28;20107;-65
2023/04/13 12:50:07;;;;;;;18.20;3.55;;;10.20;99.90;;;;;;5089190;28;20492;-65
2023/04/13 12:52:33;;;;;;;17.85;3.47;;;9.80;99.90;;;;;;5091044;28;20071;-68
2023/04/13 12:54:59;;;;;;;;;;;10.10;99.90;;;;;;5091079;28;20044;-67
2023/04/13 12:57:28;;;;;;;14.02;3.03;;;9.90;99.90;;;;;;5090678;28;19927;-66
2023/04/13 12:59:55;;;;;;;16.20;3.15;;;9.70;99.90;;;;;;5090826;28;20055;-68
2023/04/13 13:02:25;;;;;;;13.52;3.50;;;9.80;99.90;;;;;;5090873;28;20123;-66